Ansley, Mississippi
Current Conditions -  °F | °C
As of 12:53 PM on Friday 24 Oct 2014 (Local Time) from KASD Reporting Station
Clear Clear  
Wind Chill: 74°   Ceiling: Unl
Heat Index: 74°   Visibility: 10mi
Dew Point: 45°   Wind: 5mph
Humidity: 35%   Direction: 40°NE
Pressure: 30.07"   Gusts: NA
Location:  30.2253°N, 89.4838°W
Report Text: KASD 241753Z AUTO 04004KT 10SM CLR 23/07 A3007 RMK AO2 SLP184 T02330072 10239 20083 58015
Loading
Personal Weather Stations






























Interactive Weather Map New forecast layout! Learn more

10-Day Weather Forecast

Advertisements
Track Severe Weather on mobile